Harbor Emperor — WCY6430 — position and weather

sailwx.info

Track history (hours):
 
Tides and Currents Weather Stations Pressure Air Temp Water Temp Dewpoint Dewpoint Depression Visibility Wind Speed Wind Dir Waves Ship Positions

Harbor Emperor

Owner: BLUE & GOLD FLEET, SAN FRANCISCO, CA. More information available from US FCC via Universal Licensing System and Coast Guard Vessel Documentation Center.

Last reported at 2017-Nov-20 00:30 UTC. Time now 2017-Nov-22 09:22 UTC.
Position N 37°49' W 122°25'.

Length 31 m.

Type: Passenger vessel. MMSI: 366985270.

Date/timePositionNaut miles runAvg speedWind from/ knotsBaromVisibWave heightAir tempDewpointWater temp
2017-Nov-20 00:30N 37°49' W 122°25'1 1.1
2017-Nov-20 00:01N 37°49' W 122°25'3 5.1
2017-Nov-19 23:30N 37°49' W 122°28'2 5.0
2017-Nov-19 23:01N 37°49' W 122°25'0 0.0
2017-Nov-19 22:30N 37°49' W 122°25'1 1.2
2017-Nov-19 22:01N 37°49' W 122°25'2 4.9
2017-Nov-19 21:30N 37°49' W 122°28'2 4.9
2017-Nov-19 21:00N 37°49' W 122°25'1 2.7
2017-Nov-19 20:31N 37°50' W 122°25'1 2.3
2017-Nov-19 20:00N 37°50' W 122°27'2 4.6
2017-Nov-19 19:30N 37°49' W 122°25'1 1.3
2017-Nov-19 19:00N 37°49' W 122°25'2 3.7
2017-Nov-19 18:31N 37°49' W 122°27'2 3.7
2017-Nov-19 18:00N 37°49' W 122°25'0 0.0
2017-Nov-19 01:25N 37°49' W 122°25'2 5.1
2017-Nov-19 01:00N 37°49' W 122°27'2 4.3
2017-Nov-19 00:30N 37°49' W 122°25'1 1.5
2017-Nov-19 00:00N 37°49' W 122°25'2 4.3
2017-Nov-18 23:30N 37°49' W 122°27'2 4.5
2017-Nov-18 23:01N 37°49' W 122°25'0 0.0
2017-Nov-18 22:31N 37°49' W 122°25'1 1.4
2017-Nov-18 22:01N 37°49' W 122°25'2 4.4
2017-Nov-18 21:30N 37°49' W 122°28'2 4.6
2017-Nov-18 21:00N 37°49' W 122°25'1 2.6
2017-Nov-18 20:30N 37°50' W 122°25'2 3.1
2017-Nov-18 20:00N 37°50' W 122°27'2 5.0
2017-Nov-18 19:30N 37°49' W 122°25'1 1.9
2017-Nov-18 19:00N 37°49' W 122°25'1 2.9
2017-Nov-18 18:30N 37°49' W 122°27'2 3.1
2017-Nov-18 18:00N 37°49' W 122°25'0 0.0
2017-Nov-18 17:30N 37°49' W 122°25'0 0.0
2017-Nov-17 23:08N 37°49' W 122°25'0 0.0
2017-Nov-17 23:00N 37°49' W 122°25'0 0.1
2017-Nov-17 22:31N 37°49' W 122°25'1 1.2
2017-Nov-17 22:01N 37°49' W 122°25'1 1.6
2017-Nov-17 21:31N 37°49' W 122°26'0 0.8
2017-Nov-17 21:01N 37°49' W 122°26'0 0.9
2017-Nov-17 20:31N 37°49' W 122°25'0 0.9
2017-Nov-17 20:00N 37°49' W 122°25'0 0.1
2017-Nov-17 19:31N 37°49' W 122°25'0 0.2
2017-Nov-17 19:00N 37°49' W 122°25'0 0.3
2017-Nov-17 18:31N 37°49' W 122°25'0 0.8
2017-Nov-17 18:01N 37°49' W 122°25'0 0.4
2017-Nov-17 17:31N 37°49' W 122°25'0 0.6
2017-Nov-17 17:01N 37°49' W 122°25'0 0.5
2017-Nov-17 16:31N 37°49' W 122°25'0 0.8
2017-Nov-17 16:01N 37°49' W 122°25'0 0.0
2017-Nov-17 15:31N 37°49' W 122°25'0 0.0
2017-Nov-17 15:00N 37°49' W 122°25'0 0.0
2017-Nov-17 14:31N 37°49' W 122°25'0 0.0
2017-Nov-17 14:00N 37°49' W 122°25'0 0.0
2017-Nov-17 13:30N 37°49' W 122°25'0 0.0
2017-Nov-17 13:01N 37°49' W 122°25'0 0.0
2017-Nov-17 12:30N 37°49' W 122°25'0 0.0
2017-Nov-17 12:01N 37°49' W 122°25'0 0.0
2017-Nov-17 11:31N 37°49' W 122°25'0 0.0
2017-Nov-17 11:00N 37°49' W 122°25'0 0.0
2017-Nov-17 10:30N 37°49' W 122°25'0 0.0
2017-Nov-17 10:00N 37°49' W 122°25'0 0.0
2017-Nov-17 09:31N 37°49' W 122°25'0 0.0
2017-Nov-17 09:00N 37°49' W 122°25'0 0.0
2017-Nov-17 08:30N 37°49' W 122°25'0 0.0
2017-Nov-17 08:00N 37°49' W 122°25'0 0.0
2017-Nov-17 07:30N 37°49' W 122°25'0 0.0
2017-Nov-17 07:01N 37°49' W 122°25'0 0.0
2017-Nov-17 06:30N 37°49' W 122°25'0 0.0
2017-Nov-17 06:00N 37°49' W 122°25'0 0.0
2017-Nov-17 05:31N 37°49' W 122°25'0 0.0
2017-Nov-17 05:00N 37°49' W 122°25'0 0.0
2017-Nov-17 04:30N 37°49' W 122°25'0 0.0
2017-Nov-17 04:00N 37°49' W 122°25'0 0.0
2017-Nov-17 03:30N 37°49' W 122°25'0 0.0
2017-Nov-17 03:00N 37°49' W 122°25'0 0.0
2017-Nov-17 02:31N 37°49' W 122°25'0 0.0
2017-Nov-17 02:00N 37°49' W 122°25'0 0.0
2017-Nov-17 01:30N 37°49' W 122°25'2 3.5
2017-Nov-17 01:01N 37°49' W 122°27'2 3.5
2017-Nov-17 00:31N 37°49' W 122°25'1 1.6
2017-Nov-17 00:01N 37°49' W 122°25'2 4.3
2017-Nov-16 23:30N 37°49' W 122°27'2 4.4
2017-Nov-16 23:00N 37°49' W 122°25'0 0.0
2017-Nov-16 22:30N 37°49' W 122°25'1 1.6
2017-Nov-16 22:01N 37°49' W 122°25'2 4.4
2017-Nov-16 21:30N 37°49' W 122°27'2 4.5
2017-Nov-16 21:01N 37°49' W 122°25'1 2.6
2017-Nov-16 20:30N 37°50' W 122°25'1 2.4
2017-Nov-16 20:00N 37°50' W 122°27'2 4.4
2017-Nov-16 19:30N 37°49' W 122°25'1 1.3
2017-Nov-16 19:00N 37°49' W 122°25'2 4.0
2017-Nov-16 18:30N 37°49' W 122°27'2 4.3
2017-Nov-16 18:00N 37°49' W 122°25'0 0.0
2017-Nov-16 01:25N 37°49' W 122°25'2 4.3
2017-Nov-16 01:01N 37°50' W 122°26'2 3.5
2017-Nov-16 00:31N 37°49' W 122°25'0 1.0
2017-Nov-16 00:01N 37°49' W 122°25'2 4.8
2017-Nov-15 23:31N 37°49' W 122°28'2 4.7
2017-Nov-15 23:01N 37°49' W 122°25'0 0.0
2017-Nov-15 22:31N 37°49' W 122°25'1 1.1
2017-Nov-15 22:00N 37°49' W 122°25'3 5.4
2017-Nov-15 21:30N 37°49' W 122°28'3 5.3
2017-Nov-15 21:00N 37°49' W 122°25'1 2.6
2017-Nov-15 20:30N 37°50' W 122°25'1 2.4
2017-Nov-15 20:01N 37°50' W 122°27'2 4.2
2017-Nov-15 19:30N 37°49' W 122°25'0 0.0
2017-Nov-15 19:00N 37°49' W 122°25'0 0.0
2017-Nov-15 18:30N 37°49' W 122°25'0 0.0
2017-Nov-15 18:00N 37°49' W 122°25'0 0.0
2017-Nov-15 17:30N 37°49' W 122°25'0 0.0
2017-Nov-15 16:58N 37°49' W 122°25'0 0.0
2017-Nov-15 16:28N 37°49' W 122°25'0 0.0
2017-Nov-15 15:58N 37°49' W 122°25'0 0.0
2017-Nov-15 15:28N 37°49' W 122°25'0 0.0
2017-Nov-15 14:58N 37°49' W 122°25'0 0.0
2017-Nov-15 14:28N 37°49' W 122°25'0 0.0
2017-Nov-15 13:58N 37°49' W 122°25'0 0.0
2017-Nov-15 13:28N 37°49' W 122°25'0 0.0
2017-Nov-15 12:58N 37°49' W 122°25'0 0.0
2017-Nov-15 12:29N 37°49' W 122°25'0 0.0
2017-Nov-15 11:58N 37°49' W 122°25'0 0.0
2017-Nov-15 11:28N 37°49' W 122°25'0 0.0
2017-Nov-15 10:58N 37°49' W 122°25'0 0.0
2017-Nov-15 10:28N 37°49' W 122°25'0 0.0
2017-Nov-15 09:58N 37°49' W 122°25'0 0.0
2017-Nov-15 09:28N 37°49' W 122°25'0 0.0
2017-Nov-15 08:58N 37°49' W 122°25'0 0.0
2017-Nov-15 08:28N 37°49' W 122°25'0 0.0
2017-Nov-15 07:58N 37°49' W 122°25'0 0.0
2017-Nov-15 07:28N 37°49' W 122°25'0 0.0
2017-Nov-15 06:58N 37°49' W 122°25'0 0.0
2017-Nov-15 06:28N 37°49' W 122°25'0 0.0
2017-Nov-15 05:58N 37°49' W 122°25'0 0.0
2017-Nov-15 05:28N 37°49' W 122°25'0 0.0
2017-Nov-15 04:58N 37°49' W 122°25'0 0.0
2017-Nov-15 04:29N 37°49' W 122°25'0 0.0
2017-Nov-15 03:58N 37°49' W 122°25'0 0.0
2017-Nov-15 03:28N 37°49' W 122°25'0 0.0
2017-Nov-15 02:58N 37°49' W 122°25'0 0.0
2017-Nov-15 02:28N 37°49' W 122°25'0 0.0
2017-Nov-15 01:58N 37°49' W 122°25'0 0.0
2017-Nov-15 01:28N 37°49' W 122°25'2 4.4
2017-Nov-15 01:00N 37°49' W 122°27'2 4.1
2017-Nov-15 00:30N 37°49' W 122°25'0 0.9
2017-Nov-15 00:00N 37°49' W 122°25'2 4.3
2017-Nov-14 23:30N 37°49' W 122°27'2 4.3
2017-Nov-14 23:01N 37°49' W 122°25'0 0.0
2017-Nov-14 22:31N 37°49' W 122°25'0 1.0
2017-Nov-14 22:00N 37°49' W 122°25'3 5.0
2017-Nov-14 21:30N 37°49' W 122°28'3 5.3
2017-Nov-14 21:00N 37°49' W 122°25'1 2.0
2017-Nov-14 20:30N 37°49' W 122°25'2 3.7
2017-Nov-14 20:00N 37°49' W 122°27'2 4.5
2017-Nov-14 19:30N 37°49' W 122°25'0 0.8
2017-Nov-14 19:00N 37°49' W 122°24'3 5.4
2017-Nov-14 18:30N 37°49' W 122°28'3 5.1
2017-Nov-14 18:00N 37°49' W 122°25'0 0.0
2017-Nov-14 17:30N 37°49' W 122°25'0 0.0
2017-Nov-14 17:00N 37°49' W 122°25'0 0.0
2017-Nov-14 16:30N 37°49' W 122°25'0 0.0
2017-Nov-14 16:00N 37°49' W 122°25'0 0.0
2017-Nov-14 15:30N 37°49' W 122°25'0 0.0
2017-Nov-14 15:00N 37°49' W 122°25'0 0.0
2017-Nov-14 14:30N 37°49' W 122°25'0 0.0
2017-Nov-14 14:00N 37°49' W 122°25'0 0.0
2017-Nov-14 13:30N 37°49' W 122°25'0 0.0
2017-Nov-14 13:00N 37°49' W 122°25'0 0.0
2017-Nov-14 12:30N 37°49' W 122°25'0 0.0
2017-Nov-14 12:00N 37°49' W 122°25'0 0.0
2017-Nov-14 11:27N 37°49' W 122°25'0 0.0
2017-Nov-14 11:00N 37°49' W 122°25'0 0.0
2017-Nov-14 10:30N 37°49' W 122°25'0 0.0
2017-Nov-14 10:00N 37°49' W 122°25'0 0.0
2017-Nov-14 09:30N 37°49' W 122°25'0 0.0
2017-Nov-14 09:00N 37°49' W 122°25'0 0.0
2017-Nov-14 08:30N 37°49' W 122°25'0 0.0
2017-Nov-14 08:00N 37°49' W 122°25'0 0.0
2017-Nov-14 07:30N 37°49' W 122°25'0 0.0
2017-Nov-14 07:00N 37°49' W 122°25'0 0.0
2017-Nov-14 06:30N 37°49' W 122°25'0 0.0
2017-Nov-14 05:57N 37°49' W 122°25'0 0.0
2017-Nov-14 05:30N 37°49' W 122°25'0 0.0
2017-Nov-14 05:00N 37°49' W 122°25'0 0.0
2017-Nov-14 04:30N 37°49' W 122°25'0 0.0
2017-Nov-14 04:00N 37°49' W 122°25'0 0.0
2017-Nov-14 03:30N 37°49' W 122°25'0 0.0
2017-Nov-14 03:00N 37°49' W 122°25'0 0.0
2017-Nov-14 02:30N 37°49' W 122°25'0 0.0
2017-Nov-14 02:00N 37°49' W 122°25'0 0.0
2017-Nov-14 01:30N 37°49' W 122°25'2 4.1
2017-Nov-14 01:00N 37°50' W 122°27'2 4.0
2017-Nov-14 00:30N 37°49' W 122°25'0 0.7
2017-Nov-14 00:01N 37°49' W 122°24'2 5.0
2017-Nov-13 23:30N 37°49' W 122°27'2 4.3
2017-Nov-13 23:00N 37°49' W 122°25'0 0.0
2017-Nov-13 22:31N 37°49' W 122°25'0 0.8
2017-Nov-13 22:01N 37°49' W 122°24'0 0.0
2017-Nov-13 01:22N 37°49' W 122°25'2 5.7
2017-Nov-13 01:00N 37°49' W 122°27'2 4.2
2017-Nov-13 00:30N 37°49' W 122°25'1 1.2
2017-Nov-13 00:01N 37°49' W 122°24'2 4.2
2017-Nov-12 23:31N 37°49' W 122°27'2 3.8
2017-Nov-12 23:00N 37°49' W 122°25'0 0.0
2017-Nov-12 22:30N 37°49' W 122°25'1 1.9
2017-Nov-12 22:00N 37°49' W 122°25'2 3.8
2017-Nov-12 21:31N 37°49' W 122°27'2 4.2
2017-Nov-12 21:01N 37°49' W 122°25'1 2.6
2017-Nov-12 20:30N 37°50' W 122°25'1 3.0
2017-Nov-12 20:01N 37°50' W 122°27'2 4.8
2017-Nov-12 19:30N 37°49' W 122°25'1 1.5
2017-Nov-12 19:00N 37°49' W 122°25'3 5.0
2017-Nov-12 18:30N 37°49' W 122°28'3 5.1
2017-Nov-12 18:00N 37°49' W 122°25'0 0.0
2017-Nov-12 01:20N 37°49' W 122°25'2 6.2
2017-Nov-12 01:01N 37°49' W 122°27'2 4.0
2017-Nov-12 00:31N 37°49' W 122°25'0 0.9
2017-Nov-12 00:01N 37°49' W 122°24'2 4.3
2017-Nov-11 23:30N 37°49' W 122°27'2 3.5
2017-Nov-11 23:00N 37°49' W 122°25'0 0.0
2017-Nov-11 22:30N 37°49' W 122°25'1 1.2
2017-Nov-11 22:00N 37°49' W 122°25'2 3.9
2017-Nov-11 21:30N 37°49' W 122°27'2 3.9
2017-Nov-11 21:00N 37°49' W 122°25'1 2.6
2017-Nov-11 20:30N 37°50' W 122°25'1 2.7
2017-Nov-11 20:00N 37°50' W 122°27'2 4.9
2017-Nov-11 19:30N 37°49' W 122°25'1 1.5
2017-Nov-11 19:00N 37°49' W 122°25'2 3.9
2017-Nov-11 18:30N 37°49' W 122°27'2 4.3
2017-Nov-11 18:01N 37°49' W 122°25'0 0.0
2017-Nov-11 17:31N 37°49' W 122°25'0 0.0
2017-Nov-11 01:26N 37°49' W 122°25'2 3.9
2017-Nov-11 01:00N 37°49' W 122°27'2 3.4
2017-Nov-11 00:30N 37°49' W 122°25'1 1.4
2017-Nov-11 00:01N 37°49' W 122°24'2 4.1
2017-Nov-10 23:30N 37°49' W 122°27'2 3.8
2017-Nov-10 23:00N 37°49' W 122°25'0 0.0
2017-Nov-10 22:30N 37°49' W 122°25'1 1.1
2017-Nov-10 22:01N 37°49' W 122°24'2 4.4
2017-Nov-10 21:30N 37°49' W 122°27'2 3.8
2017-Nov-10 21:00N 37°49' W 122°25'1 2.4
2017-Nov-10 20:31N 37°50' W 122°25'1 2.7
2017-Nov-10 20:00N 37°50' W 122°27'2 4.6
2017-Nov-10 19:30N 37°49' W 122°25'1 1.7
2017-Nov-10 19:00N 37°49' W 122°25'2 4.4
2017-Nov-10 18:31N 37°49' W 122°27'2 4.2
2017-Nov-10 18:00N 37°49' W 122°25'0 0.0
2017-Nov-10 01:26N 37°49' W 122°25'2 3.9
2017-Nov-10 01:00N 37°49' W 122°26'2 3.3
2017-Nov-10 00:31N 37°49' W 122°25'  
Track history (hours):
 
Tides and Currents Weather Stations Pressure Air Temp Water Temp Dewpoint Dewpoint Depression Visibility Wind Speed Wind Dir Waves Ship Positions

Harbor Emperor

Owner: BLUE & GOLD FLEET, SAN FRANCISCO, CA. More information available from US FCC via Universal Licensing System and Coast Guard Vessel Documentation Center.

Last reported at 2017-Nov-20 00:30 UTC. Time now 2017-Nov-22 09:22 UTC.
Position N 37°49' W 122°25'.

Length 31 m.

Type: Passenger vessel. MMSI: 366985270.

Date/timePositionNaut miles runAvg speedWind from/ knotsBaromVisibWave heightAir tempDewpointWater temp
2017-Nov-20 00:30N 37°49' W 122°25'1 1.1
2017-Nov-20 00:01N 37°49' W 122°25'3 5.1
2017-Nov-19 23:30N 37°49' W 122°28'2 5.0
2017-Nov-19 23:01N 37°49' W 122°25'0 0.0
2017-Nov-19 22:30N 37°49' W 122°25'1 1.2
2017-Nov-19 22:01N 37°49' W 122°25'2 4.9
2017-Nov-19 21:30N 37°49' W 122°28'2 4.9
2017-Nov-19 21:00N 37°49' W 122°25'1 2.7
2017-Nov-19 20:31N 37°50' W 122°25'1 2.3
2017-Nov-19 20:00N 37°50' W 122°27'2 4.6
2017-Nov-19 19:30N 37°49' W 122°25'1 1.3
2017-Nov-19 19:00N 37°49' W 122°25'2 3.7
2017-Nov-19 18:31N 37°49' W 122°27'2 3.7
2017-Nov-19 18:00N 37°49' W 122°25'0 0.0
2017-Nov-19 01:25N 37°49' W 122°25'2 5.1
2017-Nov-19 01:00N 37°49' W 122°27'2 4.3
2017-Nov-19 00:30N 37°49' W 122°25'1 1.5
2017-Nov-19 00:00N 37°49' W 122°25'2 4.3
2017-Nov-18 23:30N 37°49' W 122°27'2 4.5
2017-Nov-18 23:01N 37°49' W 122°25'0 0.0
2017-Nov-18 22:31N 37°49' W 122°25'1 1.4
2017-Nov-18 22:01N 37°49' W 122°25'2 4.4
2017-Nov-18 21:30N 37°49' W 122°28'2 4.6
2017-Nov-18 21:00N 37°49' W 122°25'1 2.6
2017-Nov-18 20:30N 37°50' W 122°25'2 3.1
2017-Nov-18 20:00N 37°50' W 122°27'2 5.0
2017-Nov-18 19:30N 37°49' W 122°25'1 1.9
2017-Nov-18 19:00N 37°49' W 122°25'1 2.9
2017-Nov-18 18:30N 37°49' W 122°27'2 3.1
2017-Nov-18 18:00N 37°49' W 122°25'0 0.0
2017-Nov-18 17:30N 37°49' W 122°25'0 0.0
2017-Nov-17 23:08N 37°49' W 122°25'0 0.0
2017-Nov-17 23:00N 37°49' W 122°25'0 0.1
2017-Nov-17 22:31N 37°49' W 122°25'1 1.2
2017-Nov-17 22:01N 37°49' W 122°25'1 1.6
2017-Nov-17 21:31N 37°49' W 122°26'0 0.8
2017-Nov-17 21:01N 37°49' W 122°26'0 0.9
2017-Nov-17 20:31N 37°49' W 122°25'0 0.9
2017-Nov-17 20:00N 37°49' W 122°25'0 0.1
2017-Nov-17 19:31N 37°49' W 122°25'0 0.2
2017-Nov-17 19:00N 37°49' W 122°25'0 0.3
2017-Nov-17 18:31N 37°49' W 122°25'0 0.8
2017-Nov-17 18:01N 37°49' W 122°25'0 0.4
2017-Nov-17 17:31N 37°49' W 122°25'0 0.6
2017-Nov-17 17:01N 37°49' W 122°25'0 0.5
2017-Nov-17 16:31N 37°49' W 122°25'0 0.8
2017-Nov-17 16:01N 37°49' W 122°25'0 0.0
2017-Nov-17 15:31N 37°49' W 122°25'0 0.0
2017-Nov-17 15:00N 37°49' W 122°25'0 0.0
2017-Nov-17 14:31N 37°49' W 122°25'0 0.0
2017-Nov-17 14:00N 37°49' W 122°25'0 0.0
2017-Nov-17 13:30N 37°49' W 122°25'0 0.0
2017-Nov-17 13:01N 37°49' W 122°25'0 0.0
2017-Nov-17 12:30N 37°49' W 122°25'0 0.0
2017-Nov-17 12:01N 37°49' W 122°25'0 0.0
2017-Nov-17 11:31N 37°49' W 122°25'0 0.0
2017-Nov-17 11:00N 37°49' W 122°25'0 0.0
2017-Nov-17 10:30N 37°49' W 122°25'0 0.0
2017-Nov-17 10:00N 37°49' W 122°25'0 0.0
2017-Nov-17 09:31N 37°49' W 122°25'0 0.0
2017-Nov-17 09:00N 37°49' W 122°25'0 0.0
2017-Nov-17 08:30N 37°49' W 122°25'0 0.0
2017-Nov-17 08:00N 37°49' W 122°25'0 0.0
2017-Nov-17 07:30N 37°49' W 122°25'0 0.0
2017-Nov-17 07:01N 37°49' W 122°25'0 0.0
2017-Nov-17 06:30N 37°49' W 122°25'0 0.0
2017-Nov-17 06:00N 37°49' W 122°25'0 0.0
2017-Nov-17 05:31N 37°49' W 122°25'0 0.0
2017-Nov-17 05:00N 37°49' W 122°25'0 0.0
2017-Nov-17 04:30N 37°49' W 122°25'0 0.0
2017-Nov-17 04:00N 37°49' W 122°25'0 0.0
2017-Nov-17 03:30N 37°49' W 122°25'0 0.0
2017-Nov-17 03:00N 37°49' W 122°25'0 0.0
2017-Nov-17 02:31N 37°49' W 122°25'0 0.0
2017-Nov-17 02:00N 37°49' W 122°25'0 0.0
2017-Nov-17 01:30N 37°49' W 122°25'2 3.5
2017-Nov-17 01:01N 37°49' W 122°27'2 3.5
2017-Nov-17 00:31N 37°49' W 122°25'1 1.6
2017-Nov-17 00:01N 37°49' W 122°25'2 4.3
2017-Nov-16 23:30N 37°49' W 122°27'2 4.4
2017-Nov-16 23:00N 37°49' W 122°25'0 0.0
2017-Nov-16 22:30N 37°49' W 122°25'1 1.6
2017-Nov-16 22:01N 37°49' W 122°25'2 4.4
2017-Nov-16 21:30N 37°49' W 122°27'2 4.5
2017-Nov-16 21:01N 37°49' W 122°25'1 2.6
2017-Nov-16 20:30N 37°50' W 122°25'1 2.4
2017-Nov-16 20:00N 37°50' W 122°27'2 4.4
2017-Nov-16 19:30N 37°49' W 122°25'1 1.3
2017-Nov-16 19:00N 37°49' W 122°25'2 4.0
2017-Nov-16 18:30N 37°49' W 122°27'2 4.3
2017-Nov-16 18:00N 37°49' W 122°25'0 0.0
2017-Nov-16 01:25N 37°49' W 122°25'2 4.3
2017-Nov-16 01:01N 37°50' W 122°26'2 3.5
2017-Nov-16 00:31N 37°49' W 122°25'0 1.0
2017-Nov-16 00:01N 37°49' W 122°25'2 4.8
2017-Nov-15 23:31N 37°49' W 122°28'2 4.7
2017-Nov-15 23:01N 37°49' W 122°25'0 0.0
2017-Nov-15 22:31N 37°49' W 122°25'1 1.1
2017-Nov-15 22:00N 37°49' W 122°25'3 5.4
2017-Nov-15 21:30N 37°49' W 122°28'3 5.3
2017-Nov-15 21:00N 37°49' W 122°25'1 2.6
2017-Nov-15 20:30N 37°50' W 122°25'1 2.4
2017-Nov-15 20:01N 37°50' W 122°27'2 4.2
2017-Nov-15 19:30N 37°49' W 122°25'0 0.0
2017-Nov-15 19:00N 37°49' W 122°25'0 0.0
2017-Nov-15 18:30N 37°49' W 122°25'0 0.0
2017-Nov-15 18:00N 37°49' W 122°25'0 0.0
2017-Nov-15 17:30N 37°49' W 122°25'0 0.0
2017-Nov-15 16:58N 37°49' W 122°25'0 0.0
2017-Nov-15 16:28N 37°49' W 122°25'0 0.0
2017-Nov-15 15:58N 37°49' W 122°25'0 0.0
2017-Nov-15 15:28N 37°49' W 122°25'0 0.0
2017-Nov-15 14:58N 37°49' W 122°25'0 0.0
2017-Nov-15 14:28N 37°49' W 122°25'0 0.0
2017-Nov-15 13:58N 37°49' W 122°25'0 0.0
2017-Nov-15 13:28N 37°49' W 122°25'0 0.0
2017-Nov-15 12:58N 37°49' W 122°25'0 0.0
2017-Nov-15 12:29N 37°49' W 122°25'0 0.0
2017-Nov-15 11:58N 37°49' W 122°25'0 0.0
2017-Nov-15 11:28N 37°49' W 122°25'0 0.0
2017-Nov-15 10:58N 37°49' W 122°25'0 0.0
2017-Nov-15 10:28N 37°49' W 122°25'0 0.0
2017-Nov-15 09:58N 37°49' W 122°25'0 0.0
2017-Nov-15 09:28N 37°49' W 122°25'0 0.0
2017-Nov-15 08:58N 37°49' W 122°25'0 0.0
2017-Nov-15 08:28N 37°49' W 122°25'0 0.0
2017-Nov-15 07:58N 37°49' W 122°25'0 0.0
2017-Nov-15 07:28N 37°49' W 122°25'0 0.0
2017-Nov-15 06:58N 37°49' W 122°25'0 0.0
2017-Nov-15 06:28N 37°49' W 122°25'0 0.0
2017-Nov-15 05:58N 37°49' W 122°25'0 0.0
2017-Nov-15 05:28N 37°49' W 122°25'0 0.0
2017-Nov-15 04:58N 37°49' W 122°25'0 0.0
2017-Nov-15 04:29N 37°49' W 122°25'0 0.0
2017-Nov-15 03:58N 37°49' W 122°25'0 0.0
2017-Nov-15 03:28N 37°49' W 122°25'0 0.0
2017-Nov-15 02:58N 37°49' W 122°25'0 0.0
2017-Nov-15 02:28N 37°49' W 122°25'0 0.0
2017-Nov-15 01:58N 37°49' W 122°25'0 0.0
2017-Nov-15 01:28N 37°49' W 122°25'2 4.4
2017-Nov-15 01:00N 37°49' W 122°27'2 4.1
2017-Nov-15 00:30N 37°49' W 122°25'0 0.9
2017-Nov-15 00:00N 37°49' W 122°25'2 4.3
2017-Nov-14 23:30N 37°49' W 122°27'2 4.3
2017-Nov-14 23:01N 37°49' W 122°25'0 0.0
2017-Nov-14 22:31N 37°49' W 122°25'0 1.0
2017-Nov-14 22:00N 37°49' W 122°25'3 5.0
2017-Nov-14 21:30N 37°49' W 122°28'3 5.3
2017-Nov-14 21:00N 37°49' W 122°25'1 2.0
2017-Nov-14 20:30N 37°49' W 122°25'2 3.7
2017-Nov-14 20:00N 37°49' W 122°27'2 4.5
2017-Nov-14 19:30N 37°49' W 122°25'0 0.8
2017-Nov-14 19:00N 37°49' W 122°24'3 5.4
2017-Nov-14 18:30N 37°49' W 122°28'3 5.1
2017-Nov-14 18:00N 37°49' W 122°25'0 0.0
2017-Nov-14 17:30N 37°49' W 122°25'0 0.0
2017-Nov-14 17:00N 37°49' W 122°25'0 0.0
2017-Nov-14 16:30N 37°49' W 122°25'0 0.0
2017-Nov-14 16:00N 37°49' W 122°25'0 0.0
2017-Nov-14 15:30N 37°49' W 122°25'0 0.0
2017-Nov-14 15:00N 37°49' W 122°25'0 0.0
2017-Nov-14 14:30N 37°49' W 122°25'0 0.0
2017-Nov-14 14:00N 37°49' W 122°25'0 0.0
2017-Nov-14 13:30N 37°49' W 122°25'0 0.0
2017-Nov-14 13:00N 37°49' W 122°25'0 0.0
2017-Nov-14 12:30N 37°49' W 122°25'0 0.0
2017-Nov-14 12:00N 37°49' W 122°25'0 0.0
2017-Nov-14 11:27N 37°49' W 122°25'0 0.0
2017-Nov-14 11:00N 37°49' W 122°25'0 0.0
2017-Nov-14 10:30N 37°49' W 122°25'0 0.0
2017-Nov-14 10:00N 37°49' W 122°25'0 0.0
2017-Nov-14 09:30N 37°49' W 122°25'0 0.0
2017-Nov-14 09:00N 37°49' W 122°25'0 0.0
2017-Nov-14 08:30N 37°49' W 122°25'0 0.0
2017-Nov-14 08:00N 37°49' W 122°25'0 0.0
2017-Nov-14 07:30N 37°49' W 122°25'0 0.0
2017-Nov-14 07:00N 37°49' W 122°25'0 0.0
2017-Nov-14 06:30N 37°49' W 122°25'0 0.0
2017-Nov-14 05:57N 37°49' W 122°25'0 0.0
2017-Nov-14 05:30N 37°49' W 122°25'0 0.0
2017-Nov-14 05:00N 37°49' W 122°25'0 0.0
2017-Nov-14 04:30N 37°49' W 122°25'0 0.0
2017-Nov-14 04:00N 37°49' W 122°25'0 0.0
2017-Nov-14 03:30N 37°49' W 122°25'0 0.0
2017-Nov-14 03:00N 37°49' W 122°25'0 0.0
2017-Nov-14 02:30N 37°49' W 122°25'0 0.0
2017-Nov-14 02:00N 37°49' W 122°25'0 0.0
2017-Nov-14 01:30N 37°49' W 122°25'2 4.1
2017-Nov-14 01:00N 37°50' W 122°27'2 4.0
2017-Nov-14 00:30N 37°49' W 122°25'0 0.7
2017-Nov-14 00:01N 37°49' W 122°24'2 5.0
2017-Nov-13 23:30N 37°49' W 122°27'2 4.3
2017-Nov-13 23:00N 37°49' W 122°25'0 0.0
2017-Nov-13 22:31N 37°49' W 122°25'0 0.8
2017-Nov-13 22:01N 37°49' W 122°24'0 0.0
2017-Nov-13 01:22N 37°49' W 122°25'2 5.7
2017-Nov-13 01:00N 37°49' W 122°27'2 4.2
2017-Nov-13 00:30N 37°49' W 122°25'1 1.2
2017-Nov-13 00:01N 37°49' W 122°24'2 4.2
2017-Nov-12 23:31N 37°49' W 122°27'2 3.8
2017-Nov-12 23:00N 37°49' W 122°25'0 0.0
2017-Nov-12 22:30N 37°49' W 122°25'1 1.9
2017-Nov-12 22:00N 37°49' W 122°25'2 3.8
2017-Nov-12 21:31N 37°49' W 122°27'2 4.2
2017-Nov-12 21:01N 37°49' W 122°25'1 2.6
2017-Nov-12 20:30N 37°50' W 122°25'1 3.0
2017-Nov-12 20:01N 37°50' W 122°27'2 4.8
2017-Nov-12 19:30N 37°49' W 122°25'1 1.5
2017-Nov-12 19:00N 37°49' W 122°25'3 5.0
2017-Nov-12 18:30N 37°49' W 122°28'3 5.1
2017-Nov-12 18:00N 37°49' W 122°25'0 0.0
2017-Nov-12 01:20N 37°49' W 122°25'2 6.2
2017-Nov-12 01:01N 37°49' W 122°27'2 4.0
2017-Nov-12 00:31N 37°49' W 122°25'0 0.9
2017-Nov-12 00:01N 37°49' W 122°24'2 4.3
2017-Nov-11 23:30N 37°49' W 122°27'2 3.5
2017-Nov-11 23:00N 37°49' W 122°25'0 0.0
2017-Nov-11 22:30N 37°49' W 122°25'1 1.2
2017-Nov-11 22:00N 37°49' W 122°25'2 3.9
2017-Nov-11 21:30N 37°49' W 122°27'2 3.9
2017-Nov-11 21:00N 37°49' W 122°25'1 2.6
2017-Nov-11 20:30N 37°50' W 122°25'1 2.7
2017-Nov-11 20:00N 37°50' W 122°27'2 4.9
2017-Nov-11 19:30N 37°49' W 122°25'1 1.5
2017-Nov-11 19:00N 37°49' W 122°25'2 3.9
2017-Nov-11 18:30N 37°49' W 122°27'2 4.3
2017-Nov-11 18:01N 37°49' W 122°25'0 0.0
2017-Nov-11 17:31N 37°49' W 122°25'0 0.0
2017-Nov-11 01:26N 37°49' W 122°25'2 3.9
2017-Nov-11 01:00N 37°49' W 122°27'2 3.4
2017-Nov-11 00:30N 37°49' W 122°25'1 1.4
2017-Nov-11 00:01N 37°49' W 122°24'2 4.1
2017-Nov-10 23:30N 37°49' W 122°27'2 3.8
2017-Nov-10 23:00N 37°49' W 122°25'0 0.0
2017-Nov-10 22:30N 37°49' W 122°25'1 1.1
2017-Nov-10 22:01N 37°49' W 122°24'2 4.4
2017-Nov-10 21:30N 37°49' W 122°27'2 3.8
2017-Nov-10 21:00N 37°49' W 122°25'1 2.4
2017-Nov-10 20:31N 37°50' W 122°25'1 2.7
2017-Nov-10 20:00N 37°50' W 122°27'2 4.6
2017-Nov-10 19:30N 37°49' W 122°25'1 1.7
2017-Nov-10 19:00N 37°49' W 122°25'2 4.4
2017-Nov-10 18:31N 37°49' W 122°27'2 4.2
2017-Nov-10 18:00N 37°49' W 122°25'0 0.0
2017-Nov-10 01:26N 37°49' W 122°25'2 3.9
2017-Nov-10 01:00N 37°49' W 122°26'2 3.3
2017-Nov-10 00:31N 37°49' W 122°25'  

Dump ship's entire track history